createdAt,value
2022-10-25T00:03:15.696Z,14.31
2022-10-25T00:08:16.639Z,14.48
2022-10-25T00:13:14.935Z,14.17
2022-10-25T00:18:14.056Z,14.17
2022-10-25T00:23:16.104Z,14.11
2022-10-25T00:28:15.005Z,14.17
2022-10-25T00:33:18.284Z,14.06
2022-10-25T00:38:18.737Z,14.25
2022-10-25T00:43:37.050Z,14.38
2022-10-25T00:48:37.087Z,14.26
2022-10-25T00:53:37.541Z,14.12
2022-10-25T00:58:40.407Z,13.97
2022-10-25T01:03:41.988Z,14.08
2022-10-25T01:08:51.181Z,13.81
2022-10-25T01:13:53.979Z,14.13
2022-10-25T01:18:56.847Z,14.22
2022-10-25T01:24:32.770Z,14.20
2022-10-25T01:30:05.891Z,14.14
2022-10-25T01:35:14.482Z,13.75
2022-10-25T01:40:20.853Z,14.12
2022-10-25T01:45:28.565Z,13.90
2022-10-25T01:50:33.778Z,13.92
2022-10-25T01:55:42.973Z,13.92
2022-10-25T02:00:58.887Z,13.89
2022-10-25T02:06:02.842Z,14.17
2022-10-25T02:11:42.772Z,14.12
2022-10-25T02:16:51.827Z,13.94
2022-10-25T02:21:57.852Z,13.96
2022-10-25T02:27:01.152Z,13.85
2022-10-25T02:32:04.165Z,13.81
2022-10-25T02:37:04.956Z,13.75
2022-10-25T02:42:14.728Z,13.93
2022-10-25T02:47:13.461Z,13.87
2022-10-25T02:52:14.939Z,13.74
2022-10-25T02:57:16.832Z,13.54
2022-10-25T03:02:17.427Z,13.50
2022-10-25T03:07:18.708Z,13.64
2022-10-25T03:12:18.931Z,13.68
2022-10-25T03:17:18.308Z,13.57
2022-10-25T03:22:15.806Z,13.40
2022-10-25T03:27:17.940Z,13.46
2022-10-25T03:32:17.093Z,13.40
2022-10-25T03:37:28.020Z,13.49
2022-10-25T03:42:29.060Z,13.44
2022-10-25T03:47:32.540Z,13.26
2022-10-25T03:52:31.378Z,13.22
2022-10-25T03:57:33.695Z,13.30
2022-10-25T04:02:34.774Z,13.39
2022-10-25T04:07:36.462Z,13.24
2022-10-25T04:12:35.155Z,13.21
2022-10-25T04:17:38.620Z,13.11
2022-10-25T04:22:41.036Z,13.22
2022-10-25T04:27:39.520Z,13.19
2022-10-25T04:32:37.543Z,13.48
2022-10-25T04:37:43.002Z,13.06
2022-10-25T04:42:45.323Z,13.22
2022-10-25T04:47:45.544Z,13.09
2022-10-25T04:52:45.248Z,13.33
2022-10-25T04:57:45.528Z,13.08
2022-10-25T05:02:47.603Z,13.15
2022-10-25T05:07:47.578Z,13.14
2022-10-25T05:12:54.962Z,13.33
2022-10-25T05:18:01.139Z,13.25
2022-10-25T05:23:03.003Z,13.55
2022-10-25T05:28:02.439Z,13.64
2022-10-25T05:33:05.084Z,13.54
2022-10-25T05:38:05.102Z,13.86
2022-10-25T05:43:05.679Z,13.75
2022-10-25T05:48:08.165Z,13.70
2022-10-25T05:53:07.393Z,13.75
2022-10-25T05:58:07.313Z,14.23
2022-10-25T06:03:10.817Z,14.08
2022-10-25T06:08:09.783Z,14.01
2022-10-25T06:13:11.912Z,14.22
2022-10-25T06:18:18.176Z,14.15
2022-10-25T06:23:23.544Z,14.13
2022-10-25T06:28:25.942Z,14.11
2022-10-25T06:33:28.263Z,14.23
2022-10-25T06:38:33.818Z,14.31
2022-10-25T06:43:43.425Z,14.79
2022-10-25T06:48:44.199Z,15.02
2022-10-25T06:53:46.512Z,15.27
2022-10-25T06:58:45.123Z,15.30
2022-10-25T07:03:45.555Z,15.26
2022-10-25T07:08:48.218Z,15.26
2022-10-25T07:13:49.165Z,15.33
2022-10-25T07:18:52.210Z,15.66
2022-10-25T07:23:55.087Z,15.97
2022-10-25T07:28:55.733Z,16.10
2022-10-25T07:33:54.800Z,16.19
2022-10-25T07:38:57.177Z,16.11
2022-10-25T07:43:56.107Z,16.39
2022-10-25T07:48:55.993Z,16.75
2022-10-25T07:53:57.853Z,16.64
2022-10-25T07:58:58.503Z,16.77
2022-10-25T08:03:59.815Z,16.80
2022-10-25T08:09:09.632Z,16.43
2022-10-25T08:19:25.806Z,16.67
2022-10-25T08:24:24.464Z,16.61
2022-10-25T08:29:22.253Z,16.98
2022-10-25T08:34:26.583Z,17.10
2022-10-25T08:39:26.575Z,17.31
2022-10-25T08:44:39.536Z,17.78
2022-10-25T08:49:59.492Z,17.82
2022-10-25T08:55:15.746Z,18.29
2022-10-25T09:00:22.154Z,18.46
2022-10-25T09:05:41.745Z,18.87
2022-10-25T09:11:11.211Z,18.79
2022-10-25T09:16:22.762Z,19.08
2022-10-25T09:21:36.360Z,19.18
2022-10-25T09:26:54.761Z,19.51
2022-10-25T09:31:57.277Z,19.68
2022-10-25T09:37:39.949Z,20.12
2022-10-25T09:42:42.045Z,20.33
2022-10-25T09:47:48.151Z,20.45
2022-10-25T09:53:12.364Z,20.78
2022-10-25T09:58:30.646Z,20.66
2022-10-25T10:03:33.173Z,20.98
2022-10-25T10:08:33.459Z,20.92
2022-10-25T10:14:11.347Z,21.00
2022-10-25T10:19:24.388Z,21.09
2022-10-25T10:24:47.178Z,21.23
2022-10-25T10:30:07.945Z,21.17
2022-10-25T10:35:08.530Z,21.33
2022-10-25T10:40:13.335Z,21.49
2022-10-25T10:45:19.389Z,21.40
2022-10-25T10:50:24.260Z,21.52
2022-10-25T10:55:33.552Z,21.33
2022-10-25T11:00:37.879Z,21.40
2022-10-25T11:05:59.076Z,21.54
2022-10-25T11:11:26.803Z,21.89
2022-10-25T11:16:47.755Z,22.09
2022-10-25T11:22:05.368Z,22.33
2022-10-25T11:27:23.267Z,22.39
2022-10-25T11:32:57.039Z,22.60
2022-10-25T11:38:07.892Z,22.59
2022-10-25T11:43:35.154Z,23.01
2022-10-25T11:48:43.152Z,23.07
2022-10-25T11:53:58.966Z,23.15
2022-10-25T11:59:22.380Z,23.40
2022-10-25T12:04:45.021Z,23.34
2022-10-25T12:09:53.511Z,23.39
2022-10-25T12:14:56.630Z,23.58
2022-10-25T12:19:58.343Z,23.68
2022-10-25T12:25:04.106Z,23.87
2022-10-25T12:30:21.687Z,23.81
2022-10-25T12:35:56.593Z,23.80
2022-10-25T12:41:02.339Z,24.05
2022-10-25T12:46:06.509Z,24.30
2022-10-25T12:51:38.206Z,24.36
2022-10-25T12:57:01.066Z,24.39
2022-10-25T13:02:36.853Z,24.24
2022-10-25T13:07:49.887Z,24.69
2022-10-25T13:13:09.067Z,24.56
2022-10-25T13:18:41.949Z,24.59
2022-10-25T13:23:43.053Z,24.85
2022-10-25T13:28:52.857Z,24.94
2022-10-25T13:34:14.914Z,24.87
2022-10-25T13:39:41.872Z,24.83
2022-10-25T13:45:07.712Z,24.92
2022-10-25T13:50:29.490Z,24.84
2022-10-25T13:55:36.675Z,24.58
2022-10-25T14:00:41.599Z,24.41
2022-10-25T14:05:58.327Z,24.54
2022-10-25T14:11:03.908Z,24.30
2022-10-25T14:16:04.780Z,24.22
2022-10-25T14:21:05.729Z,24.30
2022-10-25T14:26:06.324Z,24.03
2022-10-25T14:31:06.762Z,24.25
2022-10-25T14:36:11.950Z,24.17
2022-10-25T14:41:13.045Z,23.86
2022-10-25T14:52:05.920Z,23.77
2022-10-25T14:57:11.767Z,23.66
2022-10-25T15:02:17.738Z,23.53
2022-10-25T15:07:25.652Z,23.59
2022-10-25T15:12:35.073Z,23.46
2022-10-25T15:17:39.246Z,23.28
2022-10-25T15:28:52.071Z,22.75
2022-10-25T15:34:02.415Z,22.86
2022-10-25T15:39:23.249Z,22.55
2022-10-25T15:50:58.973Z,22.46
2022-10-25T15:55:58.738Z,22.34
2022-10-25T16:00:57.386Z,22.15
2022-10-25T16:05:57.566Z,22.12
2022-10-25T16:10:58.105Z,22.08
2022-10-25T16:21:14.480Z,22.14
2022-10-25T16:26:36.488Z,22.13
2022-10-25T16:43:53.616Z,21.99
2022-10-25T16:49:09.899Z,21.70
2022-10-25T16:54:40.705Z,21.76
2022-10-25T17:00:13.797Z,21.63
2022-10-25T17:05:28.334Z,21.26
2022-10-25T17:10:31.556Z,21.20
2022-10-25T17:15:32.184Z,21.20
2022-10-25T17:20:32.893Z,21.27
2022-10-25T17:25:35.269Z,21.15
2022-10-25T17:30:34.335Z,21.22
2022-10-25T17:35:32.825Z,21.11
2022-10-25T17:40:33.941Z,21.12
2022-10-25T17:45:33.355Z,20.76
2022-10-25T17:50:49.089Z,20.80
2022-10-25T17:55:48.440Z,20.67
2022-10-25T18:00:49.716Z,20.60
2022-10-25T18:05:55.695Z,20.52
2022-10-25T18:11:09.855Z,20.40
2022-10-25T18:16:27.059Z,20.63
2022-10-25T18:21:26.416Z,20.34
2022-10-25T18:26:25.826Z,20.50
2022-10-25T18:31:34.924Z,20.44
2022-10-25T18:36:37.736Z,20.62
2022-10-25T18:47:19.802Z,20.48
2022-10-25T18:52:30.993Z,20.58
2022-10-25T18:57:41.163Z,20.34
2022-10-25T19:02:53.928Z,20.34
2022-10-25T19:08:12.041Z,20.47
2022-10-25T19:13:23.468Z,20.29
2022-10-25T19:18:24.814Z,20.15
2022-10-25T19:23:24.061Z,19.98
2022-10-25T19:28:26.721Z,20.04
2022-10-25T19:33:25.741Z,19.87
2022-10-25T19:38:40.079Z,19.93
2022-10-25T19:43:47.416Z,20.05
2022-10-25T19:48:47.802Z,19.81
2022-10-25T19:53:47.919Z,19.92
2022-10-25T19:58:47.411Z,19.50
2022-10-25T20:03:50.400Z,19.68
2022-10-25T20:09:53.142Z,19.51
2022-10-25T20:14:59.527Z,19.28
2022-10-25T20:19:59.492Z,19.35
2022-10-25T20:25:02.490Z,19.34
2022-10-25T20:35:31.420Z,18.97
2022-10-25T20:45:51.303Z,18.97
2022-10-25T20:51:33.464Z,19.09
2022-10-25T20:57:09.896Z,18.62
2022-10-25T21:02:13.841Z,18.92
2022-10-25T21:07:16.370Z,18.74
2022-10-25T21:12:13.956Z,18.49
2022-10-25T21:17:11.627Z,18.37
2022-10-25T21:22:14.104Z,18.22
2022-10-25T21:27:21.568Z,18.18
2022-10-25T21:32:23.719Z,18.29
2022-10-25T21:37:24.585Z,18.05
2022-10-25T21:42:56.748Z,18.06
2022-10-25T21:47:56.479Z,18.17
2022-10-25T21:53:04.856Z,18.02
2022-10-25T21:58:11.901Z,17.84
2022-10-25T22:03:10.599Z,18.03
2022-10-25T22:08:30.313Z,17.84
2022-10-25T22:13:34.502Z,17.64
2022-10-25T22:18:35.639Z,17.82
2022-10-25T22:23:40.621Z,17.75
2022-10-25T22:28:41.966Z,17.49
2022-10-25T22:33:52.675Z,17.53
2022-10-25T22:38:55.776Z,17.38
2022-10-25T22:43:55.861Z,17.34
2022-10-25T22:54:29.418Z,17.28
2022-10-25T23:00:15.421Z,17.62
2022-10-25T23:05:15.845Z,17.29
2022-10-25T23:10:19.801Z,17.47
2022-10-25T23:15:21.357Z,17.33
2022-10-25T23:20:21.315Z,17.27
2022-10-25T23:25:24.864Z,17.29
2022-10-25T23:30:34.671Z,17.40
2022-10-25T23:35:38.109Z,17.32
2022-10-25T23:40:44.025Z,17.16
2022-10-25T23:45:48.400Z,17.22
2022-10-25T23:55:59.233Z,17.05
